Time;durP1;ratioP1;P1;durP2;ratioP2;P2;SDS_P1;SDS_P2;PMS_P1;PMS_P2;Temp;Humidity;BMP_temperature;BMP_pressure;BME280_temperature;BME280_humidity;BME280_pressure;Samples;Min_cycle;Max_cycle;Signal;HPM_P1;HPM_P2
2022/08/06 00:02:00;;;;;;;;;;;18.20;99.90;;;;;;5084535;28;19963;-70
2022/08/06 00:04:27;;;;;;;;;;;18.10;99.90;;;;;;5084191;28;19985;-69
2022/08/06 00:06:53;;;;;;;;;;;18.00;99.90;;;;;;5084536;28;19929;-69
2022/08/06 00:09:20;;;;;;;;;;;18.00;99.90;;;;;;5084432;28;19920;-69
2022/08/06 00:11:48;;;;;;;;;;;17.90;99.90;;;;;;5084517;28;19988;-70
2022/08/06 00:14:15;;;;;;;;;;;17.90;99.90;;;;;;5084039;28;19955;-69
2022/08/06 00:16:41;;;;;;;;;;;17.90;99.90;;;;;;5084051;28;19996;-70
2022/08/06 00:19:08;;;;;;;;;;;17.90;99.90;;;;;;5083815;28;19964;-69
2022/08/06 00:21:35;;;;;;;;;;;18.00;99.90;;;;;;5083740;28;19953;-69
2022/08/06 00:24:01;;;;;;;;;;;18.00;99.90;;;;;;5084014;28;19952;-69
2022/08/06 00:26:28;;;;;;;;;;;17.80;99.90;;;;;;5083791;28;20208;-69
2022/08/06 00:28:57;;;;;;;;;;;17.80;99.90;;;;;;5083801;28;20236;-69
2022/08/06 00:31:23;;;;;;;;;;;17.80;99.90;;;;;;5083396;28;19955;-69
2022/08/06 00:33:50;;;;;;;;;;;17.70;99.90;;;;;;5083581;28;19920;-69
2022/08/06 00:36:16;;;;;;;;;;;17.70;99.90;;;;;;5083698;28;19920;-69
2022/08/06 00:38:43;;;;;;;;;;;17.60;99.90;;;;;;5083901;28;19991;-69
2022/08/06 00:41:10;;;;;;;;;;;17.50;99.90;;;;;;5083729;28;20171;-69
2022/08/06 00:43:36;;;;;;;;;;;17.40;99.90;;;;;;5083009;28;19984;-69
2022/08/06 00:46:04;;;;;;;;;;;17.40;99.90;;;;;;5084160;28;19927;-70
2022/08/06 00:48:31;;;;;;;;;;;17.40;99.90;;;;;;5083761;28;19963;-70
2022/08/06 00:50:58;;;;;;;;;;;17.40;99.90;;;;;;5083770;28;19995;-69
2022/08/06 00:53:24;;;;;;;;;;;17.40;99.90;;;;;;5083558;28;19927;-69
2022/08/06 00:55:51;;;;;;;;;;;17.30;99.90;;;;;;5083162;28;19925;-69
2022/08/06 00:58:18;;;;;;;;;;;17.30;99.90;;;;;;5083559;28;19920;-69
2022/08/06 01:00:44;;;;;;;;;;;17.30;99.90;;;;;;5083580;28;19975;-69
2022/08/06 01:03:16;;;;;;;;;;;17.40;99.90;;;;;;5083288;28;19956;-69
2022/08/06 01:05:43;;;;;;;;;;;17.40;99.90;;;;;;5083647;28;19966;-70
2022/08/06 01:08:09;;;;;;;;;;;17.40;99.90;;;;;;5083331;28;19963;-69
2022/08/06 01:10:36;;;;;;;;;;;17.30;99.90;;;;;;5083449;28;19979;-70
2022/08/06 01:13:03;;;;;;;;;;;17.30;99.90;;;;;;5083220;28;19984;-69
2022/08/06 01:15:29;;;;;;;;;;;17.20;99.90;;;;;;5083525;28;19960;-70
2022/08/06 01:17:57;;;;;;;;;;;17.20;99.90;;;;;;5083263;28;19984;-69
2022/08/06 01:20:32;;;;;;;;;;;17.20;99.90;;;;;;5083705;28;19984;-69
2022/08/06 01:23:07;;;;;;;;;;;17.10;99.90;;;;;;5082337;28;20203;-69
2022/08/06 01:25:43;;;;;;;;;;;17.10;99.90;;;;;;5083200;28;19921;-69
2022/08/06 01:28:13;;;;;;;;;;;17.10;99.90;;;;;;5094935;22;19921;-69
2022/08/06 01:30:43;;;;;;;;;;;17.10;99.90;;;;;;5063326;28;19928;-71
2022/08/06 01:33:12;;;;;;;;;;;17.20;99.90;;;;;;5063131;28;19962;-69
2022/08/06 01:35:40;;;;;;;;;;;17.20;99.90;;;;;;5063078;28;19988;-70
2022/08/06 01:38:08;;;;;;;;;;;17.20;99.90;;;;;;5062940;28;20259;-71
2022/08/06 01:40:37;;;;;;;;;;;17.10;99.90;;;;;;5063162;28;19959;-70
2022/08/06 01:43:05;;;;;;;;;;;17.00;99.90;;;;;;5062854;28;19921;-70
2022/08/06 01:45:34;;;;;;;;;;;17.00;99.90;;;;;;5063047;28;19993;-71
2022/08/06 01:48:02;;;;;;;;;;;16.90;99.90;;;;;;5062988;28;19996;-70
2022/08/06 01:50:32;;;;;;;;;;;17.00;99.90;;;;;;5063215;28;19987;-70
2022/08/06 01:52:59;;;;;;;;;;;17.00;99.90;;;;;;5062679;28;19988;-70
2022/08/06 01:55:28;;;;;;;;;;;16.90;99.90;;;;;;5069289;28;19920;-70
2022/08/06 01:57:58;;;;;;;;;;;16.90;99.90;;;;;;5083157;28;19992;-69
2022/08/06 02:00:25;;;;;;;;;;;16.80;99.90;;;;;;5083089;28;19991;-70
2022/08/06 02:02:54;;;;;;;;;;;16.80;99.90;;;;;;5082696;28;19920;-71
2022/08/06 02:05:21;;;;;;;;;;;16.80;99.90;;;;;;5082742;28;20231;-70
2022/08/06 02:07:50;;;;;;;;;;;16.80;99.90;;;;;;5084760;28;20222;-70
2022/08/06 02:10:18;;;;;;;;;;;16.80;99.90;;;;;;5086512;28;20101;-70
2022/08/06 02:12:45;;;;;;;;;;;16.70;99.90;;;;;;5086358;28;20271;-71
2022/08/06 02:15:14;;;;;;;;;;;16.70;99.90;;;;;;5086657;28;19927;-71
2022/08/06 02:17:43;;;;;;;;;;;16.70;99.90;;;;;;5086377;28;19921;-70
2022/08/06 02:20:13;;;;;;;;;;;16.70;99.90;;;;;;5086511;28;19988;-70
2022/08/06 02:22:41;;;;;;;;;;;16.70;99.90;;;;;;5085424;28;20151;-70
2022/08/06 02:25:11;;;;;;;;;;;16.80;99.90;;;;;;5086368;28;19984;-70
2022/08/06 02:27:39;;;;;;;;;;;16.80;99.90;;;;;;5086409;28;19924;-71
2022/08/06 02:30:06;;;;;;;;;;;16.80;99.90;;;;;;5086355;28;19979;-70
2022/08/06 02:32:33;;;;;;;;;;;16.80;99.90;;;;;;5086118;28;19971;-71
2022/08/06 02:35:00;;;;;;;;;;;16.80;99.90;;;;;;5085921;28;19993;-71
2022/08/06 02:37:30;;;;;;;;;;;16.70;99.90;;;;;;5086155;28;19920;-71
2022/08/06 02:40:00;;;;;;;;;;;16.70;99.90;;;;;;5086126;28;19963;-71
2022/08/06 02:42:29;;;;;;;;;;;16.70;99.90;;;;;;5086049;28;19984;-71
2022/08/06 02:45:00;;;;;;;;;;;16.70;99.90;;;;;;5086170;28;19983;-71
2022/08/06 02:47:30;;;;;;;;;;;16.70;99.90;;;;;;5086211;28;19979;-71
2022/08/06 02:50:00;;;;;;;;;;;16.70;99.90;;;;;;5086148;28;19942;-70
2022/08/06 02:52:37;;;;;;;;;;;16.80;99.90;;;;;;5086037;28;19983;-70
2022/08/06 02:55:11;;;;;;;;;;;16.80;99.90;;;;;;5085775;28;19927;-69
2022/08/06 02:57:39;;;;;;;;;;;16.80;99.90;;;;;;5086017;28;19920;-70
2022/08/06 03:00:07;;;;;;;;;;;16.80;99.90;;;;;;5085916;28;19920;-70
2022/08/06 03:02:36;;;;;;;;;;;16.80;99.90;;;;;;5085794;28;19983;-70
2022/08/06 03:05:03;;;;;;;;;;;16.70;99.90;;;;;;5085516;28;20263;-70
2022/08/06 03:07:31;;;;;;;;;;;16.60;99.90;;;;;;5085674;28;19988;-71
2022/08/06 03:09:59;;;;;;;;;;;16.70;99.90;;;;;;5085582;28;20263;-71
2022/08/06 03:12:28;;;;;;;;;;;16.70;99.90;;;;;;5085427;28;19956;-71
2022/08/06 03:14:55;;;;;;;;;;;16.70;99.90;;;;;;5085438;28;20101;-70
2022/08/06 03:17:23;;;;;;;;;;;16.70;99.90;;;;;;5085346;28;19983;-71
2022/08/06 03:19:50;;;;;;;;;;;16.60;99.90;;;;;;5085137;28;19991;-70
2022/08/06 03:22:17;;;;;;;;;;;16.60;99.90;;;;;;5084404;28;19920;-70
2022/08/06 03:24:45;;;;;;;;;;;16.60;99.90;;;;;;5085125;28;19983;-71
2022/08/06 03:27:12;;;;;;;;;;;16.60;99.90;;;;;;5085357;28;19920;-71
2022/08/06 03:29:40;;;;;;;;;;;16.60;99.90;;;;;;5085089;28;19920;-71
2022/08/06 03:32:08;;;;;;;;;;;16.60;99.90;;;;;;5085195;28;19920;-71
2022/08/06 03:34:35;;;;;;;;;;;16.50;99.90;;;;;;5084853;28;19978;-71
2022/08/06 03:37:02;;;;;;;;;;;16.60;99.90;;;;;;5084859;28;20003;-71
2022/08/06 03:39:31;;;;;;;;;;;16.50;99.90;;;;;;5084847;28;19997;-70
2022/08/06 03:41:58;;;;;;;;;;;16.50;99.90;;;;;;5085225;28;20156;-71
2022/08/06 03:44:24;;;;;;;;;;;16.50;99.90;;;;;;5084783;28;19983;-70
2022/08/06 03:46:54;;;;;;;;;;;16.50;99.90;;;;;;5084695;28;19984;-70
2022/08/06 03:49:23;;;;;;;;;;;16.50;99.90;;;;;;5084649;28;19983;-71
2022/08/06 03:51:52;;;;;;;;;;;16.40;99.90;;;;;;5084609;28;20276;-71
2022/08/06 03:54:20;;;;;;;;;;;16.30;99.90;;;;;;5084338;28;19975;-71
2022/08/06 03:56:48;;;;;;;;;;;16.30;99.90;;;;;;5084189;28;19983;-70
2022/08/06 03:59:15;;;;;;;;;;;16.20;99.90;;;;;;5084606;28;19991;-71
2022/08/06 04:01:43;;;;;;;;;;;16.10;99.90;;;;;;5084658;28;19921;-70
2022/08/06 04:04:11;;;;;;;;;;;16.00;99.90;;;;;;5084216;28;19920;-70
2022/08/06 04:06:38;;;;;;;;;;;16.00;99.90;;;;;;5084386;28;19983;-70
2022/08/06 04:09:05;;;;;;;;;;;16.00;99.90;;;;;;5084542;28;19983;-70
2022/08/06 04:11:32;;;;;;;;;;;15.90;99.90;;;;;;5084466;28;20000;-71
2022/08/06 04:13:59;;;;;;;;;;;15.90;99.90;;;;;;5084204;28;19988;-70
2022/08/06 04:16:26;;;;;;;;;;;15.90;99.90;;;;;;5084212;28;19921;-70
2022/08/06 04:18:55;;;;;;;;;;;15.90;99.90;;;;;;5084044;28;19959;-70
2022/08/06 04:21:23;;;;;;;;;;;16.00;99.90;;;;;;5082739;28;19940;-70
2022/08/06 04:23:50;;;;;;;;;;;16.00;99.90;;;;;;5083659;28;19928;-71
2022/08/06 04:26:19;;;;;;;;;;;16.00;99.90;;;;;;5084128;28;19920;-71
2022/08/06 04:28:47;;;;;;;;;;;16.00;99.90;;;;;;5084116;28;19921;-70
2022/08/06 04:31:13;;;;;;;;;;;16.00;99.90;;;;;;5083564;28;20110;-70
2022/08/06 04:33:40;;;;;;;;;;;15.90;99.90;;;;;;5085087;28;19992;-71
2022/08/06 04:36:08;;;;;;;;;;;15.90;99.90;;;;;;5089657;28;20223;-70
2022/08/06 04:38:36;;;;;;;;;;;15.80;99.90;;;;;;5090292;28;19980;-70
2022/08/06 04:41:03;;;;;;;;;;;15.80;99.90;;;;;;5086548;28;19984;-71
2022/08/06 04:43:30;;;;;;;;;;;15.70;99.90;;;;;;5083314;28;19987;-71
2022/08/06 04:45:57;;;;;;;;;;;15.60;99.90;;;;;;5083399;28;19974;-71
2022/08/06 04:48:24;;;;;;;;;;;15.70;99.90;;;;;;5083279;28;19983;-71
2022/08/06 04:50:51;;;;;;;;;;;15.60;99.90;;;;;;5083660;28;19987;-71
2022/08/06 04:53:18;;;;;;;;;;;15.60;99.90;;;;;;5083213;28;19939;-71
2022/08/06 04:55:46;;;;;;;;;;;15.60;99.90;;;;;;5083463;28;20312;-71
2022/08/06 04:58:14;;;;;;;;;;;15.60;99.90;;;;;;5082968;28;19987;-70
2022/08/06 05:00:42;;;;;;;;;;;15.60;99.90;;;;;;5083201;28;19921;-71
2022/08/06 05:03:08;;;;;;;;;;;15.60;99.90;;;;;;5083063;28;19920;-71
2022/08/06 05:05:38;;;;;;;;;;;15.60;99.90;;;;;;5083244;28;20000;-71
2022/08/06 05:08:06;;;;;;;;;;;15.50;99.90;;;;;;5083355;28;19926;-70
2022/08/06 05:10:35;;;;;;;;;;;15.50;99.90;;;;;;5083351;28;19958;-71
2022/08/06 05:13:05;;;;;;;;;;;15.60;99.90;;;;;;5082992;28;19928;-71
2022/08/06 05:15:35;;;;;;;;;;;15.50;99.90;;;;;;5083328;28;19987;-71
2022/08/06 05:18:04;;;;;;;;;;;15.60;99.90;;;;;;5083294;28;19987;-71
2022/08/06 05:20:34;;;;;;;;;;;15.60;99.90;;;;;;5082012;28;20230;-71
2022/08/06 05:23:02;;;;;;;;;;;15.80;99.90;;;;;;5083041;28;19926;-71
2022/08/06 05:25:29;;;;;;;;;;;15.80;99.90;;;;;;5083074;28;19920;-71
2022/08/06 05:27:56;;;;;;;;;;;15.80;99.90;;;;;;5083117;28;19920;-71
2022/08/06 05:30:24;;;;;;;;;;;15.80;99.90;;;;;;5083172;28;19959;-71
2022/08/06 05:32:51;;;;;;;;;;;15.90;99.90;;;;;;5082351;28;19948;-71
2022/08/06 05:35:18;;;;;;;;;;;15.90;99.90;;;;;;5083070;28;20267;-71
2022/08/06 05:37:44;;;;;;;;;;;16.00;99.90;;;;;;5082935;28;19959;-71
2022/08/06 05:40:11;;;;;;;;;;;16.10;99.90;;;;;;5083012;28;19951;-71
2022/08/06 05:42:38;;;;;;;;;;;16.10;99.90;;;;;;5086665;28;19987;-71
2022/08/06 05:45:06;;;;;;;;;;;16.20;99.90;;;;;;5085999;28;19955;-71
2022/08/06 05:47:37;;;;;;;;;;;16.20;99.90;;;;;;5086898;28;19927;-70
2022/08/06 05:50:06;;;;;;;;;;;16.20;99.90;;;;;;5087098;28;19920;-71
2022/08/06 05:52:37;;;;;;;;;;;16.30;99.90;;;;;;5086757;28;19940;-71
2022/08/06 05:55:06;;;;;;;;;;;16.30;99.90;;;;;;5087153;28;19920;-71
2022/08/06 05:57:35;;;;;;;;;;;16.30;99.90;;;;;;5086832;28;20208;-71
2022/08/06 06:00:04;;;;;;;;;;;16.30;99.90;;;;;;5086704;28;20258;-71
2022/08/06 06:02:31;;;;;;;;;;;16.20;99.90;;;;;;5086608;28;19921;-71
2022/08/06 06:05:00;;;;;;;;;;;16.20;99.90;;;;;;5086383;28;20207;-71
2022/08/06 06:07:27;;;;;;;;;;;16.10;99.90;;;;;;5086597;28;19920;-71
2022/08/06 06:09:55;;;;;;;;;;;16.10;99.90;;;;;;5086679;28;19984;-71
2022/08/06 06:12:22;;;;;;;;;;;16.10;99.90;;;;;;5086626;28;19920;-71
2022/08/06 06:14:51;;;;;;;;;;;16.10;99.90;;;;;;5086382;28;19920;-70
2022/08/06 06:17:27;;;;;;;;;;;16.10;99.90;;;;;;5086340;28;20230;-71
2022/08/06 06:20:02;;;;;;;;;;;16.10;99.90;;;;;;5086496;28;19920;-72
2022/08/06 06:22:34;;;;;;;;;;;16.20;99.90;;;;;;5086263;28;19956;-72
2022/08/06 06:25:03;;;;;;;;;;;16.30;99.90;;;;;;5086190;28;20260;-72
2022/08/06 06:27:34;;;;;;;;;;;16.30;99.90;;;;;;5086197;28;19920;-72
2022/08/06 06:30:02;;;;;;;;;;;16.30;99.90;;;;;;5086107;28;19928;-72
2022/08/06 06:32:36;;;;;;;;;;;16.40;99.90;;;;;;5085543;28;19959;-72
2022/08/06 06:35:06;;;;;;;;;;;16.40;99.90;;;;;;5086317;28;19995;-72
2022/08/06 06:37:38;;;;;;;;;;;16.50;99.90;;;;;;5086491;28;19952;-72
2022/08/06 06:40:09;;;;;;;;;;;16.60;99.90;;;;;;5086085;28;20275;-72
2022/08/06 06:42:38;;;;;;;;;;;16.70;99.90;;;;;;5085820;28;19988;-71
2022/08/06 06:45:08;;;;;;;;;;;16.70;99.90;;;;;;5086306;28;19929;-72
2022/08/06 06:47:37;;;;;;;;;;;16.70;99.90;;;;;;5086209;28;19983;-72
2022/08/06 06:50:11;;;;;;;;;;;16.80;99.90;;;;;;5085882;28;19921;-72
2022/08/06 06:52:40;;;;;;;;;;;16.80;99.90;;;;;;5085012;28;19924;-71
2022/08/06 06:55:09;;;;;;;;;;;16.80;99.90;;;;;;5085902;28;19980;-71
2022/08/06 06:57:41;;;;;;;;;;;16.80;99.90;;;;;;5085468;28;20315;-71
2022/08/06 07:00:09;;;;;;;;;;;16.80;99.90;;;;;;5086069;28;20214;-72
2022/08/06 07:02:40;;;;;;;;;;;16.80;99.90;;;;;;5085581;28;20283;-72
2022/08/06 07:05:07;;;;;;;;;;;16.80;99.90;;;;;;5085574;28;20265;-72
2022/08/06 07:07:35;;;;;;;;;;;16.80;99.90;;;;;;5085594;28;19956;-72
2022/08/06 07:10:04;;;;;;;;;;;16.70;99.90;;;;;;5085638;28;20230;-72
2022/08/06 07:12:32;;;;;;;;;;;16.80;99.90;;;;;;5085393;28;20254;-72
2022/08/06 07:14:59;;;;;;;;;;;16.80;99.90;;;;;;5085160;28;19920;-72
2022/08/06 07:17:26;;;;;;;;;;;16.90;99.90;;;;;;5085326;28;19920;-72
2022/08/06 07:19:55;;;;;;;;;;;16.90;99.90;;;;;;5085219;28;20266;-72
2022/08/06 07:22:22;;;;;;;;;;;17.10;99.90;;;;;;5084456;28;19952;-72
2022/08/06 07:24:50;;;;;;;;;;;17.00;99.90;;;;;;5085169;28;19920;-71
2022/08/06 07:27:18;;;;;;;;;;;17.20;99.90;;;;;;5099554;22;19920;-69
2022/08/06 07:29:45;;;;;;;;;;;17.20;99.90;;;;;;5064254;28;19988;-68
2022/08/06 07:32:12;;;;;;;;;;;17.30;99.90;;;;;;5065116;28;19959;-68
2022/08/06 07:34:39;;;;;;;;;;;17.40;99.90;;;;;;5064674;28;20007;-68
2022/08/06 07:37:07;;;;;;;;;;;17.40;99.90;;;;;;5084948;28;19955;-68
2022/08/06 07:39:34;;;;;;;;;;;17.40;99.90;;;;;;5065159;28;19983;-67
2022/08/06 07:42:02;;;;;;;;;;;17.40;99.90;;;;;;5065021;28;19960;-67
2022/08/06 07:44:32;;;;;;;;;;;17.40;99.90;;;;;;5064739;28;19921;-68
2022/08/06 07:47:01;;;;;;;;;;;17.30;99.90;;;;;;5064623;28;20211;-68
2022/08/06 07:49:34;;;;;;;;;;;17.40;99.90;;;;;;5064872;28;19921;-68
2022/08/06 07:52:01;;;;;;;;;;;17.30;99.90;;;;;;5064932;28;19984;-68
2022/08/06 07:54:30;;;;;;;;;;;17.40;99.90;;;;;;5064476;28;19952;-68
2022/08/06 07:56:57;;;;;;;;;;;17.40;99.90;;;;;;5064661;28;19989;-68
2022/08/06 07:59:24;;;;;;;;;;;17.60;99.90;;;;;;5064433;28;19956;-67
2022/08/06 08:01:53;;;;;;;;;;;17.60;99.90;;;;;;5064553;28;20163;-67
2022/08/06 08:07:05;;;;;;;;;;;17.70;99.90;;;;;;5064554;28;19939;-68
2022/08/06 08:09:32;;;;;;;;;;;17.70;99.90;;;;;;5064439;28;20264;-68
2022/08/06 08:11:59;;;;;;;;;;;17.80;99.90;;;;;;5064293;28;19984;-68
2022/08/06 08:14:25;;;;;;;;;;;17.80;99.90;;;;;;5064187;28;19927;-68
2022/08/06 08:16:53;;;;;;;;;;;17.90;99.90;;;;;;5064476;28;19983;-68
2022/08/06 08:19:22;;;;;;;;;;;17.90;99.90;;;;;;5064546;28;20263;-68
2022/08/06 08:21:49;;;;;;;;;;;18.00;99.90;;;;;;5063410;28;19920;-67
2022/08/06 08:24:15;;;;;;;;;;;18.00;99.90;;;;;;5063939;28;19952;-68
2022/08/06 08:26:42;;;;;;;;;;;18.10;99.90;;;;;;5063965;28;19951;-68
2022/08/06 08:29:09;;;;;;;;;;;18.10;99.90;;;;;;5063909;28;20279;-68
2022/08/06 08:31:36;;;;;;;;;;;18.10;99.90;;;;;;5064049;28;20220;-67
2022/08/06 08:34:05;;;;;;;;;;;18.10;99.90;;;;;;5063765;28;19952;-68
2022/08/06 08:36:32;;;;;;;;;;;18.20;99.90;;;;;;5064017;28;19974;-67
2022/08/06 08:38:58;;;;;;;;;;;18.20;99.90;;;;;;5063900;28;19948;-68
2022/08/06 08:41:26;;;;;;;;;;;18.30;99.90;;;;;;5063719;28;19996;-68
2022/08/06 08:43:56;;;;;;;;;;;18.30;99.90;;;;;;5063915;28;19991;-68
2022/08/06 08:46:23;;;;;;;;;;;18.30;99.90;;;;;;5063721;28;19988;-68
2022/08/06 08:48:50;;;;;;;;;;;18.40;99.90;;;;;;5063772;28;19921;-68
2022/08/06 08:51:18;;;;;;;;;;;18.50;99.90;;;;;;5063694;28;19928;-68
2022/08/06 08:53:55;;;;;;;;;;;18.50;99.90;;;;;;5063328;28;19952;-68
2022/08/06 08:56:22;;;;;;;;;;;18.60;99.90;;;;;;5063586;28;19928;-68
2022/08/06 08:58:49;;;;;;;;;;;18.60;99.90;;;;;;5063406;28;19921;-68
2022/08/06 09:01:16;;;;;;;;;;;18.70;99.90;;;;;;5063408;28;20011;-68
2022/08/06 09:03:43;;;;;;;;;;;18.80;99.90;;;;;;5063256;28;20119;-68
2022/08/06 09:06:11;;;;;;;;;;;18.80;99.90;;;;;;5063363;28;19991;-68
2022/08/06 09:08:40;;;;;;;;;;;18.80;99.90;;;;;;5063714;28;19975;-68
2022/08/06 09:11:07;;;;;;;;;;;18.80;99.90;;;;;;5063444;28;19921;-68
2022/08/06 09:13:33;;;;;;;;;;;18.90;99.90;;;;;;5063232;28;19921;-67
2022/08/06 09:16:01;;;;;;;;;;;19.10;99.90;;;;;;5063377;28;20000;-68
2022/08/06 09:18:28;;;;;;;;;;;19.10;99.90;;;;;;5063514;28;19921;-68
2022/08/06 09:20:54;;;;;;;;;;;19.10;99.90;;;;;;5063671;28;19927;-68
2022/08/06 09:23:21;;;;;;;;;;;19.20;99.90;;;;;;5063345;28;20000;-68
2022/08/06 09:25:50;;;;;;;;;;;19.30;99.90;;;;;;5063288;28;20108;-68
2022/08/06 09:28:27;;;;;;;;;;;19.30;99.90;;;;;;5063187;28;20160;-68
2022/08/06 09:30:58;;;;;;;;;;;19.20;99.90;;;;;;5063368;28;19948;-68
2022/08/06 09:33:25;;;;;;;;;;;19.20;99.90;;;;;;5062879;28;19944;-68
2022/08/06 09:35:57;;;;;;;;;;;19.20;99.90;;;;;;5063292;28;19928;-68
2022/08/06 09:38:24;;;;;;;;;;;19.20;99.90;;;;;;5063266;28;19988;-68
2022/08/06 09:41:09;;;;;;;;;;;19.30;99.90;;;;;;5063460;28;19935;-68
2022/08/06 09:43:36;;;;;;;;;;;19.40;99.90;;;;;;5062613;28;19948;-68
2022/08/06 09:46:03;;;;;;;;;;;19.50;99.90;;;;;;5063071;28;20226;-68
2022/08/06 09:48:29;;;;;;;;;;;19.60;99.90;;;;;;5063034;28;20242;-68
2022/08/06 09:50:56;;;;;;;;;;;19.60;99.90;;;;;;5063109;28;19925;-68
2022/08/06 09:53:23;;;;;;;;;;;19.80;99.90;;;;;;5062807;28;19987;-68
2022/08/06 09:55:50;;;;;;;;;;;19.90;99.90;;;;;;5062914;28;19948;-68
2022/08/06 09:58:27;;;;;;;;;;;19.90;99.90;;;;;;5062750;28;19952;-67
2022/08/06 10:00:55;;;;;;;;;;;20.10;99.90;;;;;;5062863;28;20191;-68
2022/08/06 10:03:21;;;;;;;;;;;20.00;99.90;;;;;;5062731;28;19966;-68
2022/08/06 10:06:02;;;;;;;;;;;20.00;99.90;;;;;;5062776;28;19928;-68
2022/08/06 10:08:29;;;;;;;;;;;19.90;99.90;;;;;;5062859;28;19959;-68
2022/08/06 10:11:00;;;;;;;;;;;19.90;99.90;;;;;;5063050;28;19920;-68
2022/08/06 10:13:29;;;;;;;;;;;20.00;99.90;;;;;;5062745;28;19971;-68
2022/08/06 10:15:56;;;;;;;;;;;20.10;99.90;;;;;;5062962;28;19921;-68
2022/08/06 10:18:34;;;;;;;;;;;20.20;99.90;;;;;;5062675;28;19987;-68
2022/08/06 10:21:01;;;;;;;;;;;20.30;99.90;;;;;;5062625;28;19927;-68
2022/08/06 10:23:29;;;;;;;;;;;20.40;99.90;;;;;;5062271;28;19944;-68
2022/08/06 10:25:55;;;;;;;;;;;20.50;99.90;;;;;;5062579;28;19952;-67
2022/08/06 10:28:24;;;;;;;;;;;20.50;99.90;;;;;;5063997;28;20087;-68
2022/08/06 10:30:53;;;;;;;;;;;20.50;99.90;;;;;;5066392;28;19959;-68
2022/08/06 10:33:21;;;;;;;;;;;20.60;99.90;;;;;;5065985;28;20018;-68
2022/08/06 10:35:48;;;;;;;;;;;20.70;99.90;;;;;;5066096;28;19959;-68
2022/08/06 10:38:15;;;;;;;;;;;20.90;99.90;;;;;;5066153;28;19987;-68
2022/08/06 10:40:44;;;;;;;;;;;21.00;99.90;;;;;;5066278;28;19921;-68
2022/08/06 10:43:11;;;;;;;;;;;21.10;99.90;;;;;;5065906;28;19928;-68
2022/08/06 10:45:38;;;;;;;;;;;21.30;99.90;;;;;;5065973;28;20180;-68
2022/08/06 10:48:07;;;;;;;;;;;21.40;99.90;;;;;;5065960;28;19921;-68
2022/08/06 10:50:34;;;;;;;;;;;21.50;99.90;;;;;;5066001;28;20192;-68
2022/08/06 10:53:01;;;;;;;;;;;21.60;99.90;;;;;;5065769;28;19921;-68
2022/08/06 10:55:29;;;;;;;;;;;21.60;99.90;;;;;;5066086;28;20006;-68
2022/08/06 10:57:56;;;;;;;;;;;21.40;99.90;;;;;;5065864;28;19988;-68
2022/08/06 11:00:23;;;;;;;;;;;21.30;99.90;;;;;;5065722;28;20263;-68
2022/08/06 11:02:52;;;;;;;;;;;21.40;99.90;;;;;;5065227;28;19996;-68
2022/08/06 11:05:23;;;;;;;;;;;21.60;99.90;;;;;;5065611;28;19921;-68
2022/08/06 11:08:11;;;;;;;;;;;21.70;99.90;;;;;;5065537;28;19927;-68
2022/08/06 11:10:45;;;;;;;;;;;21.80;99.90;;;;;;5065585;28;19984;-68
2022/08/06 11:13:17;;;;;;;;;;;22.00;99.90;;;;;;5065248;28;20187;-68
2022/08/06 11:15:44;;;;;;;;;;;22.10;99.90;;;;;;5065668;28;19980;-68
2022/08/06 11:18:12;;;;;;;;;;;22.10;99.90;;;;;;5065633;28;19983;-68
2022/08/06 11:20:41;;;;;;;;;;;22.20;99.90;;;;;;5065759;28;19920;-68
2022/08/06 11:23:25;;;;;;;;;;;22.30;99.90;;;;;;5065046;28;19925;-68
2022/08/06 11:25:52;;;;;;;;;;;22.40;99.90;;;;;;5065162;28;19920;-68
2022/08/06 11:28:19;;;;;;;;;;;22.50;99.90;;;;;;5065200;28;19921;-68
2022/08/06 11:30:47;;;;;;;;;;;22.60;99.90;;;;;;5065298;28;19963;-68
2022/08/06 11:33:14;;;;;;;;;;;22.70;99.40;;;;;;5064885;28;19959;-68
2022/08/06 11:35:45;;;;;;;;;;;22.80;99.30;;;;;;5065049;28;19983;-68
2022/08/06 11:38:13;;;;;;;;;;;22.90;98.50;;;;;;5064912;28;20143;-68
2022/08/06 11:40:59;;;;;;;;;;;23.00;98.90;;;;;;5064741;28;19966;-68
2022/08/06 11:43:52;;;;;;;;;;;23.10;97.90;;;;;;5064584;28;19956;-69
2022/08/06 11:46:21;;;;;;;;;;;23.10;98.80;;;;;;5029191;28;19984;-70
2022/08/06 11:49:06;;;;;;;;;;;23.20;98.20;;;;;;5064783;28;19929;-68
2022/08/06 11:51:38;;;;;;;;;;;23.40;98.00;;;;;;5064766;28;19984;-68
2022/08/06 11:54:15;;;;;;;;;;;23.40;97.90;;;;;;5064749;28;19956;-68
2022/08/06 11:56:56;;;;;;;;;;;23.40;97.10;;;;;;5064684;28;19980;-69
2022/08/06 11:59:23;;;;;;;;;;;23.60;95.70;;;;;;5051948;28;20288;-68
2022/08/06 12:01:50;;;;;;;;;;;23.60;95.60;;;;;;5064788;28;20171;-68
2022/08/06 12:04:34;;;;;;;;;;;23.30;96.20;;;;;;5064268;28;19928;-68
2022/08/06 12:07:25;;;;;;;;;;;23.40;96.10;;;;;;5054238;28;19989;-68
2022/08/06 12:09:59;;;;;;;;;;;23.60;96.70;;;;;;5064687;28;19967;-68
2022/08/06 12:12:36;;;;;;;;;;;23.80;95.60;;;;;;5064495;28;20150;-69
2022/08/06 12:15:04;;;;;;;;;;;24.00;95.40;;;;;;5064208;28;19921;-69
2022/08/06 12:17:31;;;;;;;;;;;24.20;94.90;;;;;;5064292;28;19920;-68
2022/08/06 12:20:00;;;;;;;;;;;24.20;93.60;;;;;;5064287;28;19988;-68
2022/08/06 12:22:28;;;;;;;;;;;24.00;93.90;;;;;;5064206;28;20000;-68
2022/08/06 12:24:58;;;;;;;;;;;24.10;93.60;;;;;;5064002;28;19991;-68
2022/08/06 12:27:30;;;;;;;;;;;24.20;92.80;;;;;;5064126;28;20148;-68
2022/08/06 12:29:57;;;;;;;;;;;24.40;92.40;;;;;;5064139;28;19936;-68
2022/08/06 12:32:25;;;;;;;;;;;24.50;92.70;;;;;;5063845;28;19921;-68
2022/08/06 12:34:52;;;;;;;;;;;24.80;92.30;;;;;;5063908;28;19988;-68
2022/08/06 12:37:19;;;;;;;;;;;24.80;92.00;;;;;;5064084;28;20179;-68
2022/08/06 12:42:33;;;;;;;;;;;24.80;90.50;;;;;;5063723;28;20266;-68
2022/08/06 12:44:59;;;;;;;;;;;25.10;90.00;;;;;;5063465;28;19987;-68
2022/08/06 12:47:26;;;;;;;;;;;25.20;86.80;;;;;;5063749;28;19987;-68
2022/08/06 12:49:53;;;;;;;;;;;24.80;86.60;;;;;;5063918;28;19921;-68
2022/08/06 12:52:21;;;;;;;;;;;24.90;86.50;;;;;;5063388;28;19952;-68
2022/08/06 12:54:49;;;;;;;;;;;25.10;85.70;;;;;;5063288;28;20232;-68
2022/08/06 12:57:22;;;;;;;;;;;25.10;84.90;;;;;;5063830;28;19956;-68
2022/08/06 12:59:50;;;;;;;;;;;25.30;85.60;;;;;;5063828;28;19952;-68
2022/08/06 13:02:18;;;;;;;;;;;25.20;83.60;;;;;;5063448;28;19921;-68
2022/08/06 13:04:46;;;;;;;;;;;25.30;84.20;;;;;;5063140;28;20255;-68
2022/08/06 13:07:13;;;;;;;;;;;25.40;84.50;;;;;;5063400;28;19996;-68
2022/08/06 13:09:40;;;;;;;;;;;25.50;84.90;;;;;;5063361;28;20168;-68
2022/08/06 13:12:15;;;;;;;;;;;25.50;85.20;;;;;;5063355;28;20259;-69
2022/08/06 13:14:48;;;;;;;;;;;25.50;87.00;;;;;;5063271;28;19966;-68
2022/08/06 13:17:15;;;;;;;;;;;25.60;87.70;;;;;;5063472;28;20116;-68
2022/08/06 13:19:50;;;;;;;;;;;26.00;85.90;;;;;;5063240;28;19921;-68
2022/08/06 13:22:17;;;;;;;;;;;26.10;82.70;;;;;;5063088;28;20275;-68
2022/08/06 13:24:43;;;;;;;;;;;26.30;81.00;;;;;;5063208;28;19952;-68
2022/08/06 13:27:10;;;;;;;;;;;26.10;78.50;;;;;;5063103;28;19956;-68
2022/08/06 13:29:38;;;;;;;;;;;26.20;80.80;;;;;;5063480;28;19920;-69
2022/08/06 13:32:06;;;;;;;;;;;26.30;78.00;;;;;;5063496;28;19959;-69
2022/08/06 13:34:45;;;;;;;;;;;26.50;81.80;;;;;;5062905;28;19983;-69
2022/08/06 13:37:12;;;;;;;;;;;26.60;80.40;;;;;;5063095;28;19929;-69
2022/08/06 13:39:49;;;;;;;;;;;26.70;78.50;;;;;;5063177;28;19948;-68
2022/08/06 13:42:15;;;;;;;;;;;26.60;79.10;;;;;;5062977;28;19996;-69
2022/08/06 13:44:44;;;;;;;;;;;26.70;77.70;;;;;;5062886;28;19987;-69
2022/08/06 13:47:13;;;;;;;;;;;26.70;78.10;;;;;;5062893;28;19992;-69
2022/08/06 13:49:40;;;;;;;;;;;26.80;76.20;;;;;;5062863;28;19935;-69
2022/08/06 13:52:07;;;;;;;;;;;26.60;77.60;;;;;;5063079;28;19984;-68
2022/08/06 13:54:34;;;;;;;;;;;26.70;76.60;;;;;;5062630;28;19921;-69
2022/08/06 13:57:01;;;;;;;;;;;26.90;79.50;;;;;;5062909;28;19988;-68
2022/08/06 13:59:28;;;;;;;;;;;27.10;74.50;;;;;;5063007;28;19987;-69
2022/08/06 14:01:57;;;;;;;;;;;27.00;74.10;;;;;;5062810;28;19991;-68
2022/08/06 14:04:24;;;;;;;;;;;27.00;75.60;;;;;;5065904;28;19948;-69
2022/08/06 14:06:52;;;;;;;;;;;27.00;74.20;;;;;;5066749;28;20251;-68
2022/08/06 14:09:19;;;;;;;;;;;27.00;75.30;;;;;;5066598;28;19964;-69
2022/08/06 14:11:46;;;;;;;;;;;27.20;73.20;;;;;;5066757;28;20115;-69
2022/08/06 14:14:12;;;;;;;;;;;27.40;72.30;;;;;;5066397;28;20172;-69
2022/08/06 14:16:39;;;;;;;;;;;27.30;70.30;;;;;;5066570;28;19924;-69
2022/08/06 14:19:07;;;;;;;;;;;27.50;73.10;;;;;;5066711;28;19984;-69
2022/08/06 14:21:33;;;;;;;;;;;27.40;71.20;;;;;;5066336;28;19988;-68
2022/08/06 14:24:00;;;;;;;;;;;27.20;70.70;;;;;;5066196;28;19948;-68
2022/08/06 14:26:27;;;;;;;;;;;26.80;68.00;;;;;;5066264;28;20283;-69
2022/08/06 14:28:53;;;;;;;;;;;26.80;68.60;;;;;;5066197;28;19948;-68
2022/08/06 14:31:20;;;;;;;;;;;26.60;67.80;;;;;;5066061;28;19944;-69